Time;durP1;ratioP1;P1;durP2;ratioP2;P2;SDS_P1;SDS_P2;PMS_P1;PMS_P2;Temp;Humidity;BMP_temperature;BMP_pressure;BME280_temperature;BME280_humidity;BME280_pressure;Samples;Min_cycle;Max_cycle;Signal;HPM_P1;HPM_P2
2022/12/18 00:01:22;;;;;;;11.68;6.57;;;-0.20;99.90;;;;;;5079733;28;20037;-68
2022/12/18 00:03:49;;;;;;;10.57;6.20;;;-0.20;99.90;;;;;;5079651;28;20071;-68
2022/12/18 00:06:15;;;;;;;10.15;5.47;;;-0.30;99.90;;;;;;5079944;28;20028;-68
2022/12/18 00:08:42;;;;;;;10.57;6.07;;;-0.30;99.90;;;;;;5079799;28;20058;-67
2022/12/18 00:11:11;;;;;;;11.02;6.13;;;-0.30;99.90;;;;;;5079632;28;20056;-68
2022/12/18 00:13:37;;;;;;;9.90;5.70;;;-0.30;99.90;;;;;;5079827;28;20056;-68
2022/12/18 00:16:08;;;;;;;9.30;5.60;;;-0.30;99.90;;;;;;5080154;28;20384;-67
2022/12/18 00:18:34;;;;;;;11.52;5.97;;;-0.30;99.90;;;;;;5061622;28;20078;-67
2022/12/18 00:21:06;;;;;;;9.70;5.85;;;-0.30;99.90;;;;;;5079814;28;20032;-67
2022/12/18 00:23:32;;;;;;;9.60;5.05;;;-0.30;99.90;;;;;;5079562;28;20029;-68
2022/12/18 00:26:03;;;;;;;9.43;5.85;;;-0.30;99.90;;;;;;5079660;28;20397;-68
2022/12/18 00:28:28;;;;;;;11.63;6.10;;;-0.20;99.90;;;;;;5079368;28;20494;-68
2022/12/18 00:31:06;;;;;;;10.85;5.28;;;-0.20;99.90;;;;;;5079829;28;20029;-68
2022/12/18 00:33:31;;;;;;;11.05;5.90;;;-0.20;99.90;;;;;;5079277;28;20135;-68
2022/12/18 00:36:14;;;;;;;10.25;5.68;;;-0.30;99.90;;;;;;5079425;28;20508;-67
2022/12/18 00:38:40;;;;;;;10.40;5.88;;;-0.30;99.90;;;;;;5066638;28;20029;-67
2022/12/18 00:41:09;;;;;;;9.13;5.50;;;-0.30;99.90;;;;;;5077485;28;20479;-67
2022/12/18 00:43:36;;;;;;;11.48;6.13;;;-0.30;99.90;;;;;;5077632;28;20028;-67
2022/12/18 00:46:03;;;;;;;11.15;5.80;;;-0.30;99.90;;;;;;5077560;28;20479;-68
2022/12/18 00:48:28;;;;;;;8.35;5.32;;;-0.30;99.90;;;;;;5077600;28;20036;-68
2022/12/18 00:50:54;;;;;;;9.00;5.18;;;-0.30;99.90;;;;;;5078831;28;20116;-68
2022/12/18 00:53:20;;;;;;;11.10;6.20;;;-0.30;99.90;;;;;;5079375;28;20493;-68
2022/12/18 00:55:46;;;;;;;8.93;5.38;;;-0.30;99.90;;;;;;5078985;28;20025;-68
2022/12/18 00:58:14;;;;;;;9.52;5.63;;;-0.30;99.90;;;;;;5060841;28;20039;-68
2022/12/18 01:00:40;;;;;;;9.93;5.35;;;-0.30;99.90;;;;;;5078883;28;20084;-68
2022/12/18 01:03:06;;;;;;;9.38;5.85;;;-0.30;99.90;;;;;;5079018;28;20060;-67
2022/12/18 01:05:32;;;;;;;7.90;5.28;;;-0.20;99.90;;;;;;5060812;28;20110;-67
2022/12/18 01:07:58;;;;;;;10.40;5.60;;;-0.30;99.90;;;;;;5060892;28;20431;-67
2022/12/18 01:10:24;;;;;;;8.35;5.63;;;-0.30;99.90;;;;;;5078765;28;20086;-67
2022/12/18 01:12:50;;;;;;;10.63;5.95;;;-0.20;99.90;;;;;;5078651;28;20492;-68
2022/12/18 01:15:16;;;;;;;8.65;5.38;;;-0.30;99.90;;;;;;5078729;28;20150;-68
2022/12/18 01:17:43;;;;;;;10.85;6.40;;;-0.30;99.90;;;;;;5078613;28;20024;-68
2022/12/18 01:20:10;;;;;;;9.27;6.43;;;-0.30;99.90;;;;;;5078581;28;20031;-67
2022/12/18 01:22:36;;;;;;;9.63;5.63;;;-0.30;99.90;;;;;;5078704;28;20032;-68
2022/12/18 01:25:04;;;;;;;10.00;5.75;;;-0.30;99.90;;;;;;5078467;28;20029;-68
2022/12/18 01:27:29;;;;;;;9.80;5.78;;;-0.30;99.90;;;;;;5078316;28;20061;-68
2022/12/18 01:29:55;;;;;;;8.18;5.07;;;-0.30;99.90;;;;;;5078409;28;20384;-67
2022/12/18 01:32:21;;;;;;;12.85;6.35;;;-0.30;99.90;;;;;;5078418;28;20020;-68
2022/12/18 01:34:47;;;;;;;9.73;5.85;;;-0.30;99.90;;;;;;5077756;28;20021;-67
2022/12/18 01:37:13;;;;;;;9.00;5.68;;;-0.30;99.90;;;;;;5078189;28;20029;-67
2022/12/18 01:39:38;;;;;;;10.50;6.00;;;-0.30;99.90;;;;;;5078106;28;20471;-68
2022/12/18 01:42:14;;;;;;;10.50;5.60;;;-0.40;99.90;;;;;;5078137;28;20028;-68
2022/12/18 01:45:09;;;;;;;9.27;5.28;;;-0.40;99.90;;;;;;5078120;28;20031;-68
2022/12/18 01:47:43;;;;;;;10.55;5.40;;;-0.40;99.90;;;;;;5077973;28;20030;-68
2022/12/18 01:50:18;;;;;;;10.05;6.05;;;-0.30;99.90;;;;;;5078145;28;20469;-68
2022/12/18 01:53:05;;;;;;;9.65;5.65;;;-0.30;99.90;;;;;;5077952;28;20048;-68
2022/12/18 01:55:37;;;;;;;11.02;6.80;;;-0.30;99.90;;;;;;5077427;28;20036;-67
2022/12/18 01:58:03;;;;;;;9.98;5.70;;;-0.30;99.90;;;;;;5077591;28;20032;-68
2022/12/18 02:00:29;;;;;;;10.07;6.15;;;-0.40;99.90;;;;;;5077908;28;20036;-68
2022/12/18 02:02:56;;;;;;;11.18;5.85;;;-0.40;99.90;;;;;;5059523;28;20032;-68
2022/12/18 02:05:37;;;;;;;10.40;6.10;;;-0.40;99.90;;;;;;5077763;28;20047;-68
2022/12/18 02:08:29;;;;;;;7.47;5.13;;;-0.30;99.90;;;;;;5077903;28;20056;-68
2022/12/18 02:11:14;;;;;;;10.88;6.63;;;-0.30;99.90;;;;;;5076697;28;20075;-68
2022/12/18 02:13:53;;;;;;;11.43;6.10;;;-0.40;99.90;;;;;;5059650;28;20056;-68
2022/12/18 02:16:35;;;;;;;11.90;5.93;;;-0.40;99.90;;;;;;5077502;28;20074;-68
2022/12/18 02:19:19;;;;;;;10.30;5.65;;;-0.40;99.90;;;;;;5077471;28;20056;-69
2022/12/18 02:21:50;;;;;;;10.35;6.32;;;-0.30;99.90;;;;;;5077490;28;20020;-68
2022/12/18 02:24:34;;;;;;;10.52;5.18;;;-0.30;99.90;;;;;;5077719;28;20074;-68
2022/12/18 02:27:06;;;;;;;10.23;5.68;;;-0.30;99.90;;;;;;5077220;28;20476;-68
2022/12/18 02:29:35;;;;;;;11.45;6.22;;;-0.30;99.90;;;;;;5077480;28;20033;-68
2022/12/18 02:32:04;;;;;;;9.90;5.30;;;-0.30;99.90;;;;;;5077239;28;20020;-68
2022/12/18 02:34:33;;;;;;;10.85;6.03;;;-0.30;99.90;;;;;;5077408;28;20469;-69
2022/12/18 02:37:02;;;;;;;10.93;6.03;;;-0.30;99.90;;;;;;5077092;28;20055;-68
2022/12/18 02:39:29;;;;;;;9.48;6.00;;;-0.30;99.90;;;;;;5077003;28;20408;-69
2022/12/18 02:41:55;;;;;;;10.02;5.57;;;-0.30;99.90;;;;;;5076998;28;20025;-68
2022/12/18 02:44:20;;;;;;;10.90;5.57;;;-0.30;99.90;;;;;;5077009;28;20539;-68
2022/12/18 02:46:50;;;;;;;11.00;6.28;;;-0.30;99.90;;;;;;5076307;28;20100;-68
2022/12/18 02:49:42;;;;;;;10.52;6.32;;;-0.40;99.90;;;;;;5077287;28;20388;-68
2022/12/18 02:52:45;;;;;;;10.90;6.57;;;-0.30;99.90;;;;;;5059162;28;20059;-68
2022/12/18 02:55:23;;;;;;;11.63;6.30;;;-0.30;99.90;;;;;;5075676;28;20029;-68
2022/12/18 02:58:14;;;;;;;8.27;5.07;;;-0.40;99.90;;;;;;5076765;28;20029;-69
2022/12/18 03:00:51;;;;;;;9.35;5.07;;;-0.30;99.90;;;;;;5075737;28;20028;-68
2022/12/18 03:03:29;;;;;;;9.38;5.43;;;-0.30;99.90;;;;;;5076812;28;20021;-68
2022/12/18 03:06:01;;;;;;;8.80;5.68;;;-0.30;99.90;;;;;;5076982;28;20035;-68
2022/12/18 03:08:37;;;;;;;10.23;5.53;;;-0.30;99.90;;;;;;5077161;28;20033;-68
2022/12/18 03:11:08;;;;;;;9.23;5.20;;;-0.30;99.90;;;;;;5076499;28;20048;-69
2022/12/18 03:13:40;;;;;;;9.90;5.50;;;-0.30;99.90;;;;;;5076909;28;20502;-68
2022/12/18 03:16:09;;;;;;;9.18;5.50;;;-0.30;99.90;;;;;;5077092;28;20536;-69
2022/12/18 03:18:53;;;;;;;10.38;5.35;;;-0.30;99.90;;;;;;5058748;28;20024;-69
2022/12/18 03:21:26;;;;;;;8.82;4.50;;;-0.30;99.90;;;;;;5077056;28;20425;-69
2022/12/18 03:23:53;;;;;;;9.93;5.20;;;-0.30;99.90;;;;;;5076472;28;20029;-68
2022/12/18 03:26:25;;;;;;;10.75;6.07;;;-0.20;99.90;;;;;;5076814;28;20024;-69
2022/12/18 03:28:56;;;;;;;9.23;4.97;;;-0.30;99.90;;;;;;5058653;28;20050;-69
2022/12/18 03:31:23;;;;;;;9.13;4.97;;;-0.30;99.90;;;;;;5076878;28;20016;-69
2022/12/18 03:33:52;;;;;;;11.13;5.40;;;-0.20;99.90;;;;;;5076912;28;20366;-69
2022/12/18 03:36:18;;;;;;;8.07;4.88;;;-0.30;99.90;;;;;;5076694;28;20021;-69
2022/12/18 03:38:43;;;;;;;8.48;4.53;;;-0.20;99.90;;;;;;5076990;28;20028;-69
2022/12/18 03:41:37;;;;;;;10.35;5.32;;;-0.20;99.90;;;;;;5058549;28;20046;-69
2022/12/18 03:44:22;;;;;;;12.02;6.75;;;-0.10;99.90;;;;;;5076817;28;20032;-69
2022/12/18 03:46:55;;;;;;;9.88;5.40;;;-0.10;99.90;;;;;;5076472;28;20024;-69
2022/12/18 03:49:38;;;;;;;9.82;5.63;;;-0.20;99.90;;;;;;5076637;28;20117;-69
2022/12/18 03:52:27;;;;;;;9.50;5.47;;;-0.10;99.90;;;;;;5076692;28;20428;-69
2022/12/18 03:54:55;;;;;;;10.18;5.65;;;-0.10;99.90;;;;;;5076400;28;20029;-69
2022/12/18 03:57:25;;;;;;;8.60;5.25;;;-0.10;99.90;;;;;;5078413;28;20032;-69
2022/12/18 03:59:56;;;;;;;9.13;5.80;;;0.00;99.90;;;;;;5080208;28;20060;-69
2022/12/18 04:02:23;;;;;;;10.30;5.20;;;0.00;99.90;;;;;;5080116;28;20025;-69
2022/12/18 04:04:56;;;;;;;9.18;5.25;;;0.00;99.90;;;;;;5080224;28;20080;-69
2022/12/18 04:07:23;;;;;;;11.15;5.80;;;0.00;99.90;;;;;;5079946;28;20024;-69
2022/12/18 04:09:52;;;;;;;10.68;5.57;;;0.00;99.90;;;;;;5079940;28;20053;-69
2022/12/18 04:12:18;;;;;;;8.70;5.05;;;0.00;99.90;;;;;;5079637;28;20075;-69
2022/12/18 04:14:43;;;;;;;8.07;4.85;;;0.00;99.90;;;;;;5080043;28;20419;-69
2022/12/18 04:17:09;;;;;;;12.07;6.45;;;0.00;99.90;;;;;;5061663;28;20025;-69
2022/12/18 04:19:34;;;;;;;9.73;5.85;;;0.00;99.90;;;;;;5079511;28;20393;-69
2022/12/18 04:22:00;;;;;;;9.68;5.10;;;0.00;99.90;;;;;;5079607;28;20043;-68
2022/12/18 04:24:26;;;;;;;9.13;4.90;;;0.10;99.90;;;;;;5079594;28;20028;-69
2022/12/18 04:26:51;;;;;;;8.55;5.03;;;0.10;99.90;;;;;;5079281;28;20017;-69
2022/12/18 04:29:17;;;;;;;10.10;5.22;;;0.10;99.90;;;;;;5079716;28;20427;-69
2022/12/18 04:31:43;;;;;;;10.52;5.65;;;0.10;99.90;;;;;;5079360;28;20025;-69
2022/12/18 04:34:08;;;;;;;10.55;6.13;;;0.10;99.90;;;;;;5079657;28;20025;-69
2022/12/18 04:36:34;;;;;;;9.90;5.78;;;0.10;99.90;;;;;;5079384;28;20029;-69
2022/12/18 04:38:59;;;;;;;8.73;5.55;;;0.10;99.90;;;;;;5079616;28;20031;-69
2022/12/18 04:41:25;;;;;;;8.98;5.60;;;0.10;99.90;;;;;;5061121;28;20051;-70
2022/12/18 04:43:51;;;;;;;11.68;5.78;;;0.10;99.90;;;;;;5079445;28;20036;-69
2022/12/18 04:46:16;;;;;;;11.50;5.97;;;0.20;99.90;;;;;;5079012;28;20024;-68
2022/12/18 04:48:45;;;;;;;9.43;5.13;;;0.20;99.90;;;;;;5079252;28;20032;-69
2022/12/18 04:51:11;;;;;;;9.23;4.97;;;0.20;99.90;;;;;;5079093;28;20028;-69
2022/12/18 04:53:36;;;;;;;9.48;5.25;;;0.20;99.90;;;;;;5079223;28;20025;-69
2022/12/18 04:56:04;;;;;;;8.35;4.93;;;0.20;99.90;;;;;;5078805;28;20031;-69
2022/12/18 04:58:30;;;;;;;8.43;5.00;;;0.20;99.90;;;;;;5079219;28;20108;-69
2022/12/18 05:00:56;;;;;;;10.38;6.22;;;0.20;99.90;;;;;;5060897;28;20056;-69
2022/12/18 05:03:21;;;;;;;11.07;5.85;;;0.20;99.90;;;;;;5078858;28;20036;-69
2022/12/18 05:05:50;;;;;;;9.15;5.57;;;0.20;99.90;;;;;;5044136;28;20040;-69
2022/12/18 05:08:16;;;;;;;7.50;4.60;;;0.30;99.90;;;;;;5077814;28;20062;-69
2022/12/18 05:10:42;;;;;;;8.65;5.15;;;0.30;99.90;;;;;;5078589;28;20048;-69
2022/12/18 05:13:07;;;;;;;9.45;5.40;;;0.30;99.90;;;;;;5078626;28;20080;-69
2022/12/18 05:15:33;;;;;;;11.32;6.47;;;0.30;99.90;;;;;;5078525;28;20028;-69
2022/12/18 05:17:59;;;;;;;9.43;5.50;;;0.30;99.90;;;;;;5078568;28;20028;-69
2022/12/18 05:20:25;;;;;;;9.20;5.20;;;0.30;99.90;;;;;;5078570;28;20028;-69
2022/12/18 05:22:52;;;;;;;9.23;5.05;;;0.40;99.90;;;;;;5078582;28;20029;-69
2022/12/18 05:25:18;;;;;;;9.25;4.72;;;0.40;99.90;;;;;;5077964;28;20062;-69
2022/12/18 05:27:44;;;;;;;9.57;5.25;;;0.40;99.90;;;;;;5078240;28;20025;-69
2022/12/18 05:30:11;;;;;;;9.48;5.82;;;0.40;99.90;;;;;;5078326;28;20024;-69
2022/12/18 05:32:37;;;;;;;8.18;5.03;;;0.40;99.90;;;;;;5078238;28;20020;-69
2022/12/18 05:35:04;;;;;;;9.23;5.20;;;0.40;99.90;;;;;;5078355;28;20107;-69
2022/12/18 05:37:29;;;;;;;9.57;5.55;;;0.40;99.90;;;;;;5078135;28;20078;-69
2022/12/18 05:39:55;;;;;;;10.48;5.53;;;0.50;99.90;;;;;;5078059;28;20028;-69
2022/12/18 05:42:20;;;;;;;8.75;5.50;;;0.40;99.90;;;;;;5077974;28;20031;-69
2022/12/18 05:44:46;;;;;;;9.05;4.70;;;0.40;99.90;;;;;;5060389;28;20111;-68
2022/12/18 05:47:12;;;;;;;8.40;4.85;;;0.40;99.90;;;;;;5060128;28;20029;-68
2022/12/18 05:49:37;;;;;;;8.95;5.22;;;0.40;99.90;;;;;;5059946;28;20025;-68
2022/12/18 05:52:03;;;;;;;9.07;5.05;;;0.40;99.90;;;;;;5059948;28;20826;-68
2022/12/18 05:54:29;;;;;;;10.45;5.78;;;0.40;99.90;;;;;;5077983;28;20029;-68
2022/12/18 05:56:55;;;;;;;9.35;5.63;;;0.50;99.90;;;;;;5077860;28;20016;-68
2022/12/18 05:59:21;;;;;;;10.85;6.13;;;0.40;99.90;;;;;;5077779;28;20033;-68
2022/12/18 06:01:46;;;;;;;9.18;5.82;;;0.40;99.90;;;;;;5077815;28;20080;-69
2022/12/18 06:04:12;;;;;;;9.80;5.38;;;0.40;99.90;;;;;;5077811;28;20498;-69
2022/12/18 06:06:38;;;;;;;10.13;5.82;;;0.50;99.90;;;;;;5077557;28;20028;-69
2022/12/18 06:09:09;;;;;;;8.90;5.03;;;0.50;99.90;;;;;;5077696;28;20028;-68
2022/12/18 06:11:36;;;;;;;9.20;5.57;;;0.50;99.90;;;;;;5077361;28;20083;-69
2022/12/18 06:14:03;;;;;;;9.50;5.32;;;0.60;99.90;;;;;;5077593;28;20017;-68
2022/12/18 06:16:30;;;;;;;9.70;5.88;;;0.60;99.90;;;;;;5077574;28;20099;-69
2022/12/18 06:19:00;;;;;;;9.77;5.70;;;0.60;99.90;;;;;;5059434;28;20124;-69
2022/12/18 06:21:26;;;;;;;8.45;5.15;;;0.60;99.90;;;;;;5059494;28;20032;-69
2022/12/18 06:23:52;;;;;;;9.23;5.60;;;0.60;99.90;;;;;;5077367;28;20056;-69
2022/12/18 06:26:18;;;;;;;9.98;5.57;;;0.60;99.90;;;;;;5077283;28;20504;-69
2022/12/18 06:28:44;;;;;;;8.40;5.28;;;0.70;99.90;;;;;;5059279;28;20032;-69
2022/12/18 06:31:10;;;;;;;9.88;5.38;;;0.70;99.90;;;;;;5059369;28;20020;-69
2022/12/18 06:33:36;;;;;;;9.80;5.25;;;0.70;99.90;;;;;;5077147;28;20052;-69
2022/12/18 06:36:13;;;;;;;8.20;4.78;;;0.70;99.90;;;;;;5077267;28;20027;-69
2022/12/18 06:38:41;;;;;;;9.18;5.20;;;0.70;99.90;;;;;;5046032;28;20036;-69
2022/12/18 06:41:16;;;;;;;9.40;5.65;;;0.70;99.90;;;;;;5076916;28;20036;-69
2022/12/18 06:43:42;;;;;;;10.07;6.18;;;0.70;99.90;;;;;;5077311;28;20078;-69
2022/12/18 06:46:08;;;;;;;7.88;4.85;;;0.80;99.90;;;;;;5076822;28;20033;-68
2022/12/18 06:48:34;;;;;;;8.23;4.70;;;0.80;99.90;;;;;;5077211;28;20054;-69
2022/12/18 06:51:01;;;;;;;10.48;5.40;;;0.80;99.90;;;;;;5077097;28;20046;-69
2022/12/18 06:53:27;;;;;;;9.43;5.32;;;0.80;99.90;;;;;;5077200;28;20035;-69
2022/12/18 06:55:59;;;;;;;7.25;4.20;;;0.80;99.90;;;;;;5076860;28;20016;-69
2022/12/18 06:58:25;;;;;;;8.30;5.13;;;0.90;99.90;;;;;;5077169;28;20025;-69
2022/12/18 07:00:50;;;;;;;8.85;5.47;;;0.80;99.90;;;;;;5076847;28;20041;-69
2022/12/18 07:03:17;;;;;;;8.07;4.43;;;0.90;99.90;;;;;;5077153;28;20024;-68
2022/12/18 07:05:42;;;;;;;6.28;3.85;;;0.90;99.90;;;;;;5077050;28;20503;-69
2022/12/18 07:08:08;;;;;;;7.72;4.43;;;0.90;99.90;;;;;;5077021;28;20036;-68
2022/12/18 07:10:40;;;;;;;8.50;4.75;;;0.90;99.90;;;;;;5076835;28;20067;-68
2022/12/18 07:13:05;;;;;;;7.60;4.53;;;1.00;99.90;;;;;;5077110;28;20052;-68
2022/12/18 07:15:31;;;;;;;11.20;5.30;;;0.90;99.90;;;;;;5076870;28;20404;-69
2022/12/18 07:17:56;;;;;;;8.25;4.82;;;0.90;99.90;;;;;;5076855;28;20060;-69
2022/12/18 07:20:22;;;;;;;9.98;4.35;;;0.90;99.90;;;;;;5076851;28;20033;-69
2022/12/18 07:22:47;;;;;;;8.02;4.28;;;0.90;99.90;;;;;;5076900;28;20028;-68
2022/12/18 07:25:13;;;;;;;8.25;4.90;;;0.90;99.90;;;;;;5076789;28;20097;-69
2022/12/18 07:27:39;;;;;;;9.63;5.25;;;1.00;99.90;;;;;;5076624;28;20024;-69
2022/12/18 07:30:06;;;;;;;6.88;4.07;;;0.90;99.90;;;;;;5076936;28;20020;-69
2022/12/18 07:32:31;;;;;;;8.07;4.80;;;1.00;99.90;;;;;;5071452;28;20029;-68
2022/12/18 07:34:57;;;;;;;7.15;3.90;;;1.00;99.90;;;;;;5080629;28;20041;-69
2022/12/18 07:37:22;;;;;;;7.88;4.78;;;1.00;99.90;;;;;;5080524;28;20020;-69
2022/12/18 07:39:48;;;;;;;9.32;4.82;;;1.00;99.90;;;;;;5080488;28;20028;-69
2022/12/18 07:42:32;;;;;;;7.43;4.47;;;1.10;99.90;;;;;;5080320;28;20020;-69
2022/12/18 07:45:01;;;;;;;7.88;5.15;;;1.10;99.90;;;;;;5080340;28;20543;-68
2022/12/18 07:47:28;;;;;;;7.70;4.32;;;1.10;99.90;;;;;;5062267;28;20034;-68
2022/12/18 07:49:54;;;;;;;8.68;4.65;;;1.10;99.90;;;;;;5080116;28;20029;-68
2022/12/18 07:52:20;;;;;;;8.45;5.10;;;1.20;99.90;;;;;;5080241;28;20025;-69
2022/12/18 07:54:48;;;;;;;7.72;4.40;;;1.20;99.90;;;;;;5080081;28;20042;-69
2022/12/18 07:57:16;;;;;;;7.97;4.80;;;1.20;99.90;;;;;;5080011;28;20501;-69
2022/12/18 07:59:41;;;;;;;9.13;5.72;;;1.20;99.90;;;;;;5080019;28;20028;-69
2022/12/18 08:02:07;;;;;;;8.05;5.65;;;1.20;99.90;;;;;;5080045;28;20029;-69
2022/12/18 08:04:33;;;;;;;7.50;4.75;;;1.20;99.90;;;;;;5095721;28;20070;-69
2022/12/18 08:06:59;;;;;;;8.40;4.97;;;1.20;99.90;;;;;;5080156;28;20035;-69
2022/12/18 08:09:24;;;;;;;9.38;5.80;;;1.20;99.90;;;;;;5079925;28;20024;-69
2022/12/18 08:11:50;;;;;;;10.65;6.22;;;1.20;99.90;;;;;;5079882;28;20032;-69
2022/12/18 08:14:16;;;;;;;10.23;5.55;;;1.20;99.90;;;;;;5079973;28;20024;-69
2022/12/18 08:16:41;;;;;;;7.43;4.65;;;1.20;99.90;;;;;;5079996;28;20523;-69
2022/12/18 08:19:07;;;;;;;8.30;4.40;;;1.20;99.90;;;;;;5079875;28;20027;-69
2022/12/18 08:21:33;;;;;;;8.00;4.25;;;1.30;99.90;;;;;;5079889;28;20020;-69
2022/12/18 08:24:00;;;;;;;7.68;4.07;;;1.30;99.90;;;;;;5079748;28;20024;-69
2022/12/18 08:26:28;;;;;;;8.00;4.32;;;1.30;99.90;;;;;;5079418;28;20032;-68
2022/12/18 08:28:59;;;;;;;7.05;3.85;;;1.40;99.90;;;;;;5061651;28;20025;-69
2022/12/18 08:31:26;;;;;;;8.95;4.35;;;1.40;99.90;;;;;;5079361;28;20421;-69
2022/12/18 08:33:53;;;;;;;6.97;3.97;;;1.40;99.90;;;;;;5079857;28;20020;-69
2022/12/18 08:36:20;;;;;;;6.53;4.32;;;1.50;99.90;;;;;;5079326;28;20384;-69
2022/12/18 08:38:46;;;;;;;7.18;4.53;;;1.40;99.90;;;;;;5079667;28;20016;-69
2022/12/18 08:41:13;;;;;;;7.82;4.75;;;1.50;99.90;;;;;;5079127;28;20037;-69
2022/12/18 08:46:26;;;;;;;6.60;4.22;;;1.50;99.90;;;;;;5079395;28;20027;-68
2022/12/18 08:48:53;;;;;;;8.05;4.47;;;1.50;99.90;;;;;;5061304;28;20083;-68
2022/12/18 08:51:19;;;;;;;7.55;4.50;;;1.50;99.90;;;;;;5079183;28;20366;-69
2022/12/18 08:53:45;;;;;;;8.93;5.20;;;1.50;99.90;;;;;;5078805;28;20028;-69
2022/12/18 08:56:12;;;;;;;7.72;4.72;;;1.50;99.90;;;;;;5078856;28;20021;-68
2022/12/18 08:58:38;;;;;;;7.22;4.18;;;1.60;99.90;;;;;;5061217;28;20024;-69
2022/12/18 09:01:05;;;;;;;6.40;3.83;;;1.60;99.90;;;;;;5078875;28;20087;-68
2022/12/18 09:03:30;;;;;;;6.57;4.35;;;1.60;99.90;;;;;;5078949;28;20086;-68
2022/12/18 09:05:56;;;;;;;6.88;4.38;;;1.70;99.90;;;;;;5078900;28;20032;-69
2022/12/18 09:08:22;;;;;;;6.00;3.92;;;1.70;99.90;;;;;;5060853;28;20119;-68
2022/12/18 09:10:49;;;;;;;7.35;4.20;;;1.70;99.90;;;;;;5078620;28;20048;-68
2022/12/18 09:13:16;;;;;;;6.70;3.55;;;1.70;99.90;;;;;;5078815;28;20046;-68
2022/12/18 09:15:51;;;;;;;6.30;4.03;;;1.70;99.90;;;;;;5060645;28;20108;-68
2022/12/18 09:18:18;;;;;;;7.63;3.90;;;1.70;99.90;;;;;;5060521;28;20024;-68
2022/12/18 09:20:44;;;;;;;8.35;4.95;;;1.80;99.90;;;;;;5078300;28;20030;-69
2022/12/18 09:23:10;;;;;;;7.32;4.13;;;1.80;99.90;;;;;;5078546;28;20429;-68
2022/12/18 09:25:36;;;;;;;8.88;4.50;;;1.80;99.90;;;;;;5060149;28;20035;-68
2022/12/18 09:28:04;;;;;;;7.95;4.88;;;1.90;99.90;;;;;;5078434;28;20029;-68
2022/12/18 09:30:30;;;;;;;8.32;4.97;;;1.80;99.90;;;;;;5078335;28;20505;-68
2022/12/18 09:32:56;;;;;;;10.13;5.30;;;1.90;99.90;;;;;;5078299;28;20020;-68
2022/12/18 09:35:21;;;;;;;11.48;6.00;;;1.90;99.90;;;;;;5060182;28;20420;-68
2022/12/18 09:37:47;;;;;;;8.70;5.57;;;1.90;99.90;;;;;;5078299;28;20078;-68
2022/12/18 09:40:17;;;;;;;9.07;4.88;;;1.90;99.90;;;;;;5078045;28;20017;-68
2022/12/18 09:42:48;;;;;;;8.65;5.30;;;1.90;99.90;;;;;;5078078;28;20020;-68
2022/12/18 09:45:16;;;;;;;10.75;5.90;;;2.00;99.90;;;;;;5060272;28;20020;-68
2022/12/18 09:47:45;;;;;;;8.60;4.95;;;1.90;99.90;;;;;;5059882;28;20048;-68
2022/12/18 09:50:22;;;;;;;9.75;4.90;;;1.90;99.90;;;;;;5060210;28;20021;-68
2022/12/18 09:52:52;;;;;;;7.85;5.00;;;2.00;99.90;;;;;;5078058;28;20434;-69
2022/12/18 09:55:36;;;;;;;9.65;6.00;;;2.00;99.90;;;;;;5077623;28;20027;-68
2022/12/18 09:58:40;;;;;;;9.70;5.10;;;2.00;99.90;;;;;;5077795;28;20047;-68
2022/12/18 10:01:17;;;;;;;8.65;5.30;;;2.00;99.90;;;;;;5077727;28;20020;-68
2022/12/18 10:03:42;;;;;;;7.50;4.38;;;2.00;99.90;;;;;;5077911;28;20028;-68
2022/12/18 10:06:18;;;;;;;14.05;8.65;;;2.10;99.90;;;;;;5077658;28;20095;-68
2022/12/18 10:08:55;;;;;;;12.55;5.80;;;2.10;99.90;;;;;;5077685;28;20048;-68
2022/12/18 10:12:05;;;;;;;10.77;5.85;;;2.10;99.90;;;;;;5059358;28;20048;-68
2022/12/18 10:14:57;;;;;;;11.05;5.45;;;2.10;99.90;;;;;;5077717;28;20028;-68
2022/12/18 10:17:45;;;;;;;10.95;5.60;;;2.10;99.90;;;;;;5048936;28;20075;-68
2022/12/18 10:20:38;;;;;;;9.57;5.72;;;2.10;99.90;;;;;;5077541;28;20590;-68
2022/12/18 10:23:19;;;;;;;8.85;5.10;;;2.20;99.90;;;;;;5053153;28;20028;-68
2022/12/18 10:26:00;;;;;;;9.18;5.10;;;2.20;99.90;;;;;;5059078;28;20020;-68
2022/12/18 10:28:28;;;;;;;9.57;5.10;;;2.20;99.90;;;;;;5059330;28;20492;-68
2022/12/18 10:30:54;;;;;;;7.65;4.43;;;2.20;99.90;;;;;;5077497;28;20048;-68
2022/12/18 10:33:23;;;;;;;10.48;5.45;;;2.20;99.90;;;;;;5077408;28;20035;-68
2022/12/18 10:35:52;;;;;;;9.15;5.32;;;2.20;99.90;;;;;;5064312;28;20033;-68
2022/12/18 10:38:19;;;;;;;8.88;4.78;;;2.20;99.90;;;;;;5075298;28;20070;-68
2022/12/18 10:40:52;;;;;;;8.15;4.53;;;2.20;99.90;;;;;;5072958;28;20080;-68
2022/12/18 10:43:24;;;;;;;7.85;4.90;;;2.30;99.90;;;;;;5074211;28;20028;-68
2022/12/18 10:46:10;;;;;;;8.88;4.88;;;2.30;99.90;;;;;;5074024;28;20384;-68
2022/12/18 10:48:48;;;;;;;10.05;5.97;;;2.30;99.90;;;;;;5057234;28;20048;-68
2022/12/18 10:51:40;;;;;;;7.53;4.63;;;2.30;99.90;;;;;;5065789;28;20391;-68
2022/12/18 10:54:22;;;;;;;9.02;4.32;;;2.30;99.90;;;;;;5069644;28;20029;-68
2022/12/18 10:56:48;;;;;;;7.63;5.00;;;2.30;99.90;;;;;;5074661;28;20013;-68
2022/12/18 10:59:16;;;;;;;9.40;5.05;;;2.30;99.90;;;;;;5075089;28;20021;-68
2022/12/18 11:01:55;;;;;;;9.02;5.43;;;2.30;99.90;;;;;;5075029;28;20028;-68
2022/12/18 11:04:28;;;;;;;8.73;5.32;;;2.30;99.90;;;;;;5063430;28;20051;-68
2022/12/18 11:06:57;;;;;;;10.38;6.03;;;2.30;99.90;;;;;;5075651;28;20036;-68
2022/12/18 11:09:29;;;;;;;10.10;5.50;;;2.30;99.90;;;;;;5077684;28;21312;-68
2022/12/18 11:11:58;;;;;;;8.40;4.97;;;2.40;99.90;;;;;;5077287;28;20020;-67
2022/12/18 11:14:27;;;;;;;7.80;5.00;;;2.40;99.90;;;;;;5078322;28;20365;-68
2022/12/18 11:16:55;;;;;;;9.98;5.80;;;2.40;99.90;;;;;;5067613;28;20021;-68
2022/12/18 11:19:32;;;;;;;8.32;5.15;;;2.40;99.90;;;;;;5076717;28;20024;-68
2022/12/18 11:21:58;;;;;;;6.93;4.47;;;2.40;99.90;;;;;;5066626;28;20025;-68
2022/12/18 11:24:29;;;;;;;9.40;5.20;;;2.40;99.90;;;;;;5068667;28;20397;-68
2022/12/18 11:26:57;;;;;;;8.27;4.90;;;2.50;99.90;;;;;;5078799;28;20029;-68
2022/12/18 11:29:41;;;;;;;8.23;4.43;;;2.40;99.90;;;;;;5078321;28;20121;-68
2022/12/18 11:32:12;;;;;;;7.82;4.72;;;2.50;99.90;;;;;;5078364;28;20492;-68
2022/12/18 11:34:39;;;;;;;8.02;5.00;;;2.50;99.90;;;;;;5072998;28;20023;-68
2022/12/18 11:37:04;;;;;;;9.05;5.35;;;2.50;99.90;;;;;;5079300;28;20016;-68
2022/12/18 11:39:38;;;;;;;7.57;4.53;;;2.50;99.90;;;;;;5079236;28;20492;-68
2022/12/18 11:42:09;;;;;;;;;;;2.60;99.90;;;;;;5081354;28;20024;-68
2022/12/18 11:44:54;;;;;;;7.03;4.18;;;2.60;99.90;;;;;;5095360;28;19904;-68
2022/12/18 11:47:46;;;;;;;7.32;4.60;;;2.60;99.90;;;;;;5079221;28;20067;-68
2022/12/18 11:50:19;;;;;;;6.63;4.10;;;2.60;99.90;;;;;;5079604;28;20032;-68
2022/12/18 11:52:45;;;;;;;6.45;4.10;;;2.70;99.90;;;;;;5060499;28;20020;-68
2022/12/18 11:55:23;;;;;;;6.93;5.00;;;2.70;99.90;;;;;;5080742;28;20507;-68
2022/12/18 11:57:57;;;;;;;7.05;4.18;;;2.60;99.90;;;;;;5078283;28;20017;-68
2022/12/18 12:00:23;;;;;;;8.35;4.68;;;2.70;99.90;;;;;;5076876;28;20397;-69
2022/12/18 12:03:08;;;;;;;6.53;4.32;;;2.70;99.90;;;;;;5083053;28;20480;-69
2022/12/18 12:06:08;;;;;;;7.20;5.10;;;2.70;99.90;;;;;;5079587;28;20374;-69
2022/12/18 12:08:37;;;;;;;7.15;4.35;;;2.80;99.90;;;;;;5005427;28;20045;-69
2022/12/18 12:11:26;;;;;;;8.30;4.60;;;2.80;99.90;;;;;;5043613;28;1117105;-70
2022/12/18 12:13:52;;;;;;;7.30;4.28;;;2.80;99.90;;;;;;5061752;28;20059;-68
2022/12/18 12:16:26;;;;;;;8.85;4.93;;;2.80;99.90;;;;;;5079141;28;20020;-69
2022/12/18 12:19:19;;;;;;;7.32;4.55;;;2.90;99.90;;;;;;5077701;28;20417;-68
2022/12/18 12:22:07;;;;;;;6.53;3.88;;;2.90;99.90;;;;;;5078120;28;20020;-69
2022/12/18 12:24:48;;;;;;;8.07;4.88;;;2.90;99.90;;;;;;5057777;28;20035;-69
2022/12/18 12:27:25;;;;;;;6.97;4.63;;;3.00;99.90;;;;;;5077598;28;20025;-68
2022/12/18 12:30:04;;;;;;;6.50;4.38;;;3.00;99.90;;;;;;5075484;28;20025;-68
2022/12/18 12:32:45;;;;;;;6.75;4.03;;;3.00;99.90;;;;;;5078764;28;20025;-69
2022/12/18 12:35:25;;;;;;;6.20;4.38;;;3.00;99.90;;;;;;5079206;28;20031;-69
2022/12/18 12:38:03;;;;;;;6.72;4.22;;;3.10;99.90;;;;;;5072906;28;20031;-68
2022/12/18 12:40:31;;;;;;;7.43;4.43;;;3.10;99.90;;;;;;5079406;28;20021;-69
2022/12/18 12:43:24;;;;;;;5.38;3.50;;;3.10;99.90;;;;;;5079307;28;20032;-68
2022/12/18 12:45:59;;;;;;;5.68;3.95;;;3.10;99.90;;;;;;5079059;28;20021;-69
2022/12/18 12:49:02;;;;;;;6.72;4.22;;;3.20;99.90;;;;;;5067788;28;20119;-69
2022/12/18 12:51:29;;;;;;;6.13;3.95;;;3.20;99.90;;;;;;5078835;28;20021;-69
2022/12/18 12:53:57;;;;;;;8.98;5.97;;;3.20;99.90;;;;;;5061168;28;20016;-69
2022/12/18 12:56:55;;;;;;;7.90;5.13;;;3.20;99.90;;;;;;5078676;28;20027;-69
2022/12/18 12:59:31;;;;;;;7.45;4.68;;;3.30;99.90;;;;;;5071992;28;20059;-70
2022/12/18 13:02:33;;;;;;;6.97;4.25;;;3.30;99.90;;;;;;5077206;28;20500;-70
2022/12/18 13:05:30;;;;;;;6.28;4.18;;;3.30;99.90;;;;;;5076045;28;20428;-70
2022/12/18 13:08:21;;;;;;;7.00;4.72;;;3.40;99.90;;;;;;5075479;28;20025;-70
2022/12/18 13:10:47;;;;;;;5.40;3.70;;;3.40;99.90;;;;;;5058788;28;20045;-69
2022/12/18 13:13:19;;;;;;;5.72;4.53;;;3.40;99.90;;;;;;5077346;28;20023;-70